WHTO2: S Canadian Riv, Whitefield, OK

Data processed at Fri Mar 09 2018 23:46


All information presented herein is the property of the government of the United States of America and may be revised or deleted at any time without prior notice.
Dissemination of this information without the expressed written consent of the Public Affairs Office, Tulsa District U.S. Army Corps of Engineers is strictly prohibited.
These data are gathered electronically and, as presented, have not undergone any form of quality control. These data are not guaranteed to be valid or correct.
Go to home page.
Go to station list.

Upstream stations:

Downstream station:
Previous Day
Next Day
Current Day
    
SHEF ID:       WHTO2     Canadian River near Whitefield,
STATION TYPE:  

               PRECIP     STAGE  STAGE(2)  RIV-FLOW  BAT-LOAD
                   in        ft        ft       cfs      volt
              Ccp-Rev   Ccp-Rev   Ccp-Rev   Ccp-Rev   Ccp-Rev
(US/Central)
03/07 00:00      0.00      5.82      5.89      9045     12.65
03/07 01:00      0.00      5.81      5.92      9009     12.65
03/07 02:00      0.00      5.81      5.93      9009     12.65
03/07 03:00      0.00      5.80      5.93      8972     12.65
03/07 04:00      0.00      5.81      5.93      9009     12.57
03/07 05:00      0.00      5.81      5.94      9009     12.57
03/07 06:00      0.00      5.81      5.94      9009     12.57
03/07 07:00      0.00      5.80      5.94      8972     12.49
03/07 08:00      0.00      5.81      5.94      9009     12.57
03/07 09:00      0.00      5.83      5.93      9081     12.73
03/07 10:00      0.00      6.08      6.17     10020     13.92
03/07 11:00      0.00      6.66      6.77     12412     14.24
03/07 12:00      0.00      7.18      7.30     14823     14.40
03/07 13:00      0.00      7.58      7.69     16716     14.56
03/07 14:00      0.00      7.84      7.96     18006     14.56
03/07 15:00      0.00      7.99      8.10     18775     14.32
03/07 16:00      0.00      8.07      8.22     19193     14.16
03/07 17:00      0.00      8.14      8.29     19563     14.08
03/07 18:00      0.00      8.19      8.34     19830     13.76
03/07 19:00      0.00      8.21      8.36     19937     13.37
03/07 20:00      0.00      8.21      8.38     19937     13.05
03/07 21:00      0.00      8.22      8.39     19991     12.73
03/07 22:00      0.00      8.22      8.40     19991     12.65
03/07 23:00      0.00      8.23      8.41     20044     12.65